sensor_id;sensor_type;location;lat;lon;timestamp;P1;durP1;ratioP1;P2;durP2;ratioP2
21901;SDS011;11115;46.038;14.612;2023-10-09T00:02:11;31.15;;;0.75;;
21901;SDS011;11115;46.038;14.612;2023-10-09T00:04:45;0.13;;;0.13;;
21901;SDS011;11115;46.038;14.612;2023-10-09T00:07:33;2.63;;;0.40;;
21901;SDS011;11115;46.038;14.612;2023-10-09T00:10:12;0.47;;;0.40;;
21901;SDS011;11115;46.038;14.612;2023-10-09T00:12:49;4.47;;;0.90;;
21901;SDS011;11115;46.038;14.612;2023-10-09T00:15:27;1.02;;;0.15;;
21901;SDS011;11115;46.038;14.612;2023-10-09T00:17:59;0.60;;;0.60;;
21901;SDS011;11115;46.038;14.612;2023-10-09T00:20:44;0.13;;;0.13;;
21901;SDS011;11115;46.038;14.612;2023-10-09T00:23:21;0.35;;;0.25;;
21901;SDS011;11115;46.038;14.612;2023-10-09T00:26:02;0.10;;;0.10;;
21901;SDS011;11115;46.038;14.612;2023-10-09T00:28:51;0.43;;;0.20;;
21901;SDS011;11115;46.038;14.612;2023-10-09T00:31:23;3.50;;;1.03;;
21901;SDS011;11115;46.038;14.612;2023-10-09T00:34:04;0.80;;;0.10;;
21901;SDS011;11115;46.038;14.612;2023-10-09T00:36:46;0.50;;;0.20;;
21901;SDS011;11115;46.038;14.612;2023-10-09T00:39:29;0.25;;;0.25;;
21901;SDS011;11115;46.038;14.612;2023-10-09T00:42:15;2.43;;;0.10;;
21901;SDS011;11115;46.038;14.612;2023-10-09T00:45:04;0.30;;;0.30;;
21901;SDS011;11115;46.038;14.612;2023-10-09T00:47:54;0.10;;;0.10;;
21901;SDS011;11115;46.038;14.612;2023-10-09T00:50:35;0.68;;;0.32;;
21901;SDS011;11115;46.038;14.612;2023-10-09T00:53:16;2.10;;;0.50;;
21901;SDS011;11115;46.038;14.612;2023-10-09T00:55:47;1.40;;;0.50;;
21901;SDS011;11115;46.038;14.612;2023-10-09T00:58:29;0.47;;;0.25;;
21901;SDS011;11115;46.038;14.612;2023-10-09T01:01:09;1.42;;;0.47;;
21901;SDS011;11115;46.038;14.612;2023-10-09T01:03:50;3.57;;;0.60;;
21901;SDS011;11115;46.038;14.612;2023-10-09T01:06:21;1.70;;;0.43;;
21901;SDS011;11115;46.038;14.612;2023-10-09T01:08:55;0.35;;;0.35;;
21901;SDS011;11115;46.038;14.612;2023-10-09T01:11:37;1.10;;;0.50;;
21901;SDS011;11115;46.038;14.612;2023-10-09T01:14:33;0.83;;;0.13;;
21901;SDS011;11115;46.038;14.612;2023-10-09T01:17:15;2.17;;;0.57;;
21901;SDS011;11115;46.038;14.612;2023-10-09T01:20:07;0.65;;;0.50;;
21901;SDS011;11115;46.038;14.612;2023-10-09T01:23:03;0.17;;;0.17;;
21901;SDS011;11115;46.038;14.612;2023-10-09T01:25:34;0.28;;;0.28;;
21901;SDS011;11115;46.038;14.612;2023-10-09T01:28:32;0.77;;;0.53;;
21901;SDS011;11115;46.038;14.612;2023-10-09T01:31:16;0.30;;;0.20;;
21901;SDS011;11115;46.038;14.612;2023-10-09T01:34:02;0.53;;;0.40;;
21901;SDS011;11115;46.038;14.612;2023-10-09T01:36:59;0.27;;;0.27;;
21901;SDS011;11115;46.038;14.612;2023-10-09T01:39:40;0.70;;;0.50;;
21901;SDS011;11115;46.038;14.612;2023-10-09T01:42:20;0.20;;;0.10;;
21901;SDS011;11115;46.038;14.612;2023-10-09T01:45:03;0.33;;;0.20;;
21901;SDS011;11115;46.038;14.612;2023-10-09T01:47:56;2.83;;;0.20;;
21901;SDS011;11115;46.038;14.612;2023-10-09T01:50:38;7.60;;;0.93;;
21901;SDS011;11115;46.038;14.612;2023-10-09T01:53:15;0.20;;;0.20;;
21901;SDS011;11115;46.038;14.612;2023-10-09T01:55:49;0.57;;;0.27;;
21901;SDS011;11115;46.038;14.612;2023-10-09T01:58:29;0.33;;;0.30;;
21901;SDS011;11115;46.038;14.612;2023-10-09T02:01:04;0.20;;;0.20;;
21901;SDS011;11115;46.038;14.612;2023-10-09T02:03:34;1.03;;;0.30;;
21901;SDS011;11115;46.038;14.612;2023-10-09T02:06:19;0.33;;;0.30;;
21901;SDS011;11115;46.038;14.612;2023-10-09T02:09:04;1.00;;;0.40;;
21901;SDS011;11115;46.038;14.612;2023-10-09T02:11:51;0.80;;;0.27;;
21901;SDS011;11115;46.038;14.612;2023-10-09T02:14:31;4.70;;;1.20;;
21901;SDS011;11115;46.038;14.612;2023-10-09T02:17:16;0.93;;;0.20;;
21901;SDS011;11115;46.038;14.612;2023-10-09T02:19:54;0.47;;;0.40;;
21901;SDS011;11115;46.038;14.612;2023-10-09T02:22:28;5.80;;;0.83;;
21901;SDS011;11115;46.038;14.612;2023-10-09T02:25:10;0.17;;;0.17;;
21901;SDS011;11115;46.038;14.612;2023-10-09T02:27:47;0.20;;;0.13;;
21901;SDS011;11115;46.038;14.612;2023-10-09T02:30:27;0.70;;;0.10;;
21901;SDS011;11115;46.038;14.612;2023-10-09T02:33:14;0.10;;;0.10;;
21901;SDS011;11115;46.038;14.612;2023-10-09T02:36:00;0.83;;;0.30;;
21901;SDS011;11115;46.038;14.612;2023-10-09T02:38:35;0.30;;;0.20;;
21901;SDS011;11115;46.038;14.612;2023-10-09T02:41:18;0.40;;;0.40;;
21901;SDS011;11115;46.038;14.612;2023-10-09T02:44:00;1.20;;;0.10;;
21901;SDS011;11115;46.038;14.612;2023-10-09T02:46:40;0.20;;;0.20;;
21901;SDS011;11115;46.038;14.612;2023-10-09T02:49:11;0.10;;;0.10;;
21901;SDS011;11115;46.038;14.612;2023-10-09T02:51:52;1.43;;;0.53;;
21901;SDS011;11115;46.038;14.612;2023-10-09T02:54:38;0.43;;;0.30;;
21901;SDS011;11115;46.038;14.612;2023-10-09T02:57:37;0.17;;;0.17;;
21901;SDS011;11115;46.038;14.612;2023-10-09T03:00:10;0.20;;;0.20;;
21901;SDS011;11115;46.038;14.612;2023-10-09T03:02:55;3.73;;;0.43;;
21901;SDS011;11115;46.038;14.612;2023-10-09T03:05:39;0.30;;;0.30;;
21901;SDS011;11115;46.038;14.612;2023-10-09T03:08:14;1.60;;;0.10;;
21901;SDS011;11115;46.038;14.612;2023-10-09T03:10:53;0.40;;;0.13;;
21901;SDS011;11115;46.038;14.612;2023-10-09T03:13:31;0.40;;;0.20;;
21901;SDS011;11115;46.038;14.612;2023-10-09T03:16:07;0.97;;;0.07;;
21901;SDS011;11115;46.038;14.612;2023-10-09T03:18:49;0.63;;;0.47;;
21901;SDS011;11115;46.038;14.612;2023-10-09T03:21:20;0.50;;;0.30;;
21901;SDS011;11115;46.038;14.612;2023-10-09T03:23:51;0.53;;;0.10;;
21901;SDS011;11115;46.038;14.612;2023-10-09T03:26:29;4.13;;;0.30;;
21901;SDS011;11115;46.038;14.612;2023-10-09T03:29:03;0.23;;;0.20;;
21901;SDS011;11115;46.038;14.612;2023-10-09T03:31:50;0.57;;;0.30;;
21901;SDS011;11115;46.038;14.612;2023-10-09T03:34:29;0.70;;;0.27;;
21901;SDS011;11115;46.038;14.612;2023-10-09T03:37:14;0.67;;;0.20;;
21901;SDS011;11115;46.038;14.612;2023-10-09T03:40:10;3.90;;;0.73;;
21901;SDS011;11115;46.038;14.612;2023-10-09T03:42:50;0.13;;;0.13;;
21901;SDS011;11115;46.038;14.612;2023-10-09T03:45:31;0.30;;;0.20;;
21901;SDS011;11115;46.038;14.612;2023-10-09T03:48:08;0.13;;;0.13;;
21901;SDS011;11115;46.038;14.612;2023-10-09T03:50:48;2.10;;;0.40;;
21901;SDS011;11115;46.038;14.612;2023-10-09T03:53:35;0.23;;;0.20;;
21901;SDS011;11115;46.038;14.612;2023-10-09T03:56:20;1.27;;;0.20;;
21901;SDS011;11115;46.038;14.612;2023-10-09T03:59:06;0.47;;;0.30;;
21901;SDS011;11115;46.038;14.612;2023-10-09T04:01:50;0.87;;;0.40;;
21901;SDS011;11115;46.038;14.612;2023-10-09T04:04:24;1.50;;;0.27;;
21901;SDS011;11115;46.038;14.612;2023-10-09T04:07:00;0.57;;;0.20;;
21901;SDS011;11115;46.038;14.612;2023-10-09T04:09:34;0.17;;;0.10;;
21901;SDS011;11115;46.038;14.612;2023-10-09T04:12:17;0.50;;;0.33;;
21901;SDS011;11115;46.038;14.612;2023-10-09T04:14:56;0.00;;;0.00;;
21901;SDS011;11115;46.038;14.612;2023-10-09T04:17:45;1.77;;;0.33;;
21901;SDS011;11115;46.038;14.612;2023-10-09T04:20:21;0.30;;;0.20;;
21901;SDS011;11115;46.038;14.612;2023-10-09T04:23:13;0.45;;;0.15;;
21901;SDS011;11115;46.038;14.612;2023-10-09T04:26:06;1.03;;;0.50;;
21901;SDS011;11115;46.038;14.612;2023-10-09T04:28:42;1.60;;;0.20;;
21901;SDS011;11115;46.038;14.612;2023-10-09T04:31:19;0.30;;;0.20;;
21901;SDS011;11115;46.038;14.612;2023-10-09T04:34:03;1.25;;;0.75;;
21901;SDS011;11115;46.038;14.612;2023-10-09T04:36:53;0.30;;;0.13;;
21901;SDS011;11115;46.038;14.612;2023-10-09T04:39:29;0.30;;;0.30;;
21901;SDS011;11115;46.038;14.612;2023-10-09T04:42:23;0.90;;;0.23;;
21901;SDS011;11115;46.038;14.612;2023-10-09T04:45:18;0.73;;;0.20;;
21901;SDS011;11115;46.038;14.612;2023-10-09T04:48:22;0.90;;;0.67;;
21901;SDS011;11115;46.038;14.612;2023-10-09T04:51:08;0.50;;;0.50;;
21901;SDS011;11115;46.038;14.612;2023-10-09T04:53:55;1.63;;;0.77;;
21901;SDS011;11115;46.038;14.612;2023-10-09T04:56:46;1.13;;;0.50;;
21901;SDS011;11115;46.038;14.612;2023-10-09T04:59:22;0.30;;;0.30;;
21901;SDS011;11115;46.038;14.612;2023-10-09T05:01:54;0.23;;;0.20;;
21901;SDS011;11115;46.038;14.612;2023-10-09T05:04:34;2.43;;;0.40;;
21901;SDS011;11115;46.038;14.612;2023-10-09T05:07:18;2.37;;;0.50;;
21901;SDS011;11115;46.038;14.612;2023-10-09T05:10:24;7.93;;;1.03;;
21901;SDS011;11115;46.038;14.612;2023-10-09T05:12:59;0.53;;;0.30;;
21901;SDS011;11115;46.038;14.612;2023-10-09T05:15:28;0.77;;;0.30;;
21901;SDS011;11115;46.038;14.612;2023-10-09T05:18:07;0.27;;;0.23;;
21901;SDS011;11115;46.038;14.612;2023-10-09T05:20:51;0.73;;;0.40;;
21901;SDS011;11115;46.038;14.612;2023-10-09T05:23:49;2.83;;;0.17;;
21901;SDS011;11115;46.038;14.612;2023-10-09T05:26:44;1.60;;;0.67;;
21901;SDS011;11115;46.038;14.612;2023-10-09T05:29:50;0.43;;;0.20;;
21901;SDS011;11115;46.038;14.612;2023-10-09T05:32:28;0.20;;;0.20;;
21901;SDS011;11115;46.038;14.612;2023-10-09T05:35:18;5.37;;;0.20;;
21901;SDS011;11115;46.038;14.612;2023-10-09T05:37:59;0.40;;;0.40;;
21901;SDS011;11115;46.038;14.612;2023-10-09T05:40:35;0.60;;;0.60;;
21901;SDS011;11115;46.038;14.612;2023-10-09T05:43:11;0.20;;;0.10;;
21901;SDS011;11115;46.038;14.612;2023-10-09T05:46:07;0.30;;;0.20;;
21901;SDS011;11115;46.038;14.612;2023-10-09T05:48:51;0.40;;;0.40;;
21901;SDS011;11115;46.038;14.612;2023-10-09T05:51:37;0.70;;;0.20;;
21901;SDS011;11115;46.038;14.612;2023-10-09T05:54:15;1.00;;;0.40;;
21901;SDS011;11115;46.038;14.612;2023-10-09T05:56:59;1.80;;;0.60;;
21901;SDS011;11115;46.038;14.612;2023-10-09T05:59:46;0.30;;;0.20;;
21901;SDS011;11115;46.038;14.612;2023-10-09T06:02:39;0.10;;;0.10;;
21901;SDS011;11115;46.038;14.612;2023-10-09T06:05:35;0.40;;;0.40;;
21901;SDS011;11115;46.038;14.612;2023-10-09T06:08:30;0.93;;;0.43;;
21901;SDS011;11115;46.038;14.612;2023-10-09T06:11:44;18.52;;;1.20;;
21901;SDS011;11115;46.038;14.612;2023-10-09T06:14:25;3.93;;;0.70;;
21901;SDS011;11115;46.038;14.612;2023-10-09T06:17:19;6.30;;;1.57;;
21901;SDS011;11115;46.038;14.612;2023-10-09T06:19:57;6.07;;;1.23;;
21901;SDS011;11115;46.038;14.612;2023-10-09T06:22:58;12.40;;;1.97;;
21901;SDS011;11115;46.038;14.612;2023-10-09T06:25:46;5.20;;;1.47;;
21901;SDS011;11115;46.038;14.612;2023-10-09T06:28:19;6.70;;;0.83;;
21901;SDS011;11115;46.038;14.612;2023-10-09T06:31:02;6.23;;;1.00;;
21901;SDS011;11115;46.038;14.612;2023-10-09T06:33:55;10.02;;;1.17;;
21901;SDS011;11115;46.038;14.612;2023-10-09T06:36:49;2.70;;;0.50;;
21901;SDS011;11115;46.038;14.612;2023-10-09T06:39:38;4.30;;;0.83;;
21901;SDS011;11115;46.038;14.612;2023-10-09T06:42:45;2.07;;;0.77;;
21901;SDS011;11115;46.038;14.612;2023-10-09T06:45:31;1.70;;;0.83;;
21901;SDS011;11115;46.038;14.612;2023-10-09T06:48:14;1.63;;;0.83;;
21901;SDS011;11115;46.038;14.612;2023-10-09T06:51:08;5.37;;;1.07;;
21901;SDS011;11115;46.038;14.612;2023-10-09T06:54:06;2.10;;;0.50;;
21901;SDS011;11115;46.038;14.612;2023-10-09T06:56:38;1.98;;;0.75;;
21901;SDS011;11115;46.038;14.612;2023-10-09T06:59:24;2.80;;;0.47;;
21901;SDS011;11115;46.038;14.612;2023-10-09T07:02:12;5.07;;;1.17;;
21901;SDS011;11115;46.038;14.612;2023-10-09T07:04:55;3.87;;;1.77;;
21901;SDS011;11115;46.038;14.612;2023-10-09T07:07:41;1.13;;;0.30;;
21901;SDS011;11115;46.038;14.612;2023-10-09T07:10:22;2.20;;;0.57;;
21901;SDS011;11115;46.038;14.612;2023-10-09T07:13:08;1.42;;;0.40;;
21901;SDS011;11115;46.038;14.612;2023-10-09T07:15:42;2.93;;;0.73;;
21901;SDS011;11115;46.038;14.612;2023-10-09T07:18:41;1.00;;;0.30;;
21901;SDS011;11115;46.038;14.612;2023-10-09T07:21:39;0.47;;;0.40;;
21901;SDS011;11115;46.038;14.612;2023-10-09T07:24:22;0.43;;;0.43;;
21901;SDS011;11115;46.038;14.612;2023-10-09T07:27:12;2.53;;;0.25;;
21901;SDS011;11115;46.038;14.612;2023-10-09T07:32:31;1.05;;;0.50;;
21901;SDS011;11115;46.038;14.612;2023-10-09T07:35:04;1.00;;;0.52;;
21901;SDS011;11115;46.038;14.612;2023-10-09T07:37:36;0.60;;;0.35;;
21901;SDS011;11115;46.038;14.612;2023-10-09T07:40:08;2.15;;;0.70;;
21901;SDS011;11115;46.038;14.612;2023-10-09T07:42:51;0.45;;;0.45;;
21901;SDS011;11115;46.038;14.612;2023-10-09T07:45:21;1.13;;;0.55;;
21901;SDS011;11115;46.038;14.612;2023-10-09T07:48:05;0.55;;;0.15;;
21901;SDS011;11115;46.038;14.612;2023-10-09T07:50:47;4.15;;;0.65;;
21901;SDS011;11115;46.038;14.612;2023-10-09T07:56:10;0.57;;;0.10;;
21901;SDS011;11115;46.038;14.612;2023-10-09T07:58:41;3.47;;;0.73;;
21901;SDS011;11115;46.038;14.612;2023-10-09T08:01:26;0.65;;;0.30;;
21901;SDS011;11115;46.038;14.612;2023-10-09T08:04:08;0.52;;;0.20;;
21901;SDS011;11115;46.038;14.612;2023-10-09T08:06:44;0.40;;;0.40;;
21901;SDS011;11115;46.038;14.612;2023-10-09T08:09:34;1.98;;;0.32;;
21901;SDS011;11115;46.038;14.612;2023-10-09T08:12:29;0.30;;;0.30;;
21901;SDS011;11115;46.038;14.612;2023-10-09T08:15:30;4.78;;;0.45;;
21901;SDS011;11115;46.038;14.612;2023-10-09T08:18:18;0.70;;;0.25;;
21901;SDS011;11115;46.038;14.612;2023-10-09T08:21:02;0.40;;;0.30;;
21901;SDS011;11115;46.038;14.612;2023-10-09T08:24:13;1.60;;;0.85;;
21901;SDS011;11115;46.038;14.612;2023-10-09T08:27:00;0.35;;;0.30;;
21901;SDS011;11115;46.038;14.612;2023-10-09T08:29:47;1.02;;;0.30;;
21901;SDS011;11115;46.038;14.612;2023-10-09T08:32:41;0.98;;;0.68;;
21901;SDS011;11115;46.038;14.612;2023-10-09T08:35:35;0.88;;;0.30;;
21901;SDS011;11115;46.038;14.612;2023-10-09T08:38:18;0.22;;;0.22;;
21901;SDS011;11115;46.038;14.612;2023-10-09T08:41:21;0.30;;;0.28;;
21901;SDS011;11115;46.038;14.612;2023-10-09T08:44:10;0.60;;;0.10;;
21901;SDS011;11115;46.038;14.612;2023-10-09T08:46:57;0.30;;;0.20;;
21901;SDS011;11115;46.038;14.612;2023-10-09T08:49:37;0.40;;;0.35;;
21901;SDS011;11115;46.038;14.612;2023-10-09T08:52:17;1.88;;;0.50;;
21901;SDS011;11115;46.038;14.612;2023-10-09T08:54:49;0.30;;;0.30;;
21901;SDS011;11115;46.038;14.612;2023-10-09T08:57:35;2.92;;;0.30;;
21901;SDS011;11115;46.038;14.612;2023-10-09T09:00:21;0.47;;;0.45;;
21901;SDS011;11115;46.038;14.612;2023-10-09T09:03:06;6.85;;;1.15;;
21901;SDS011;11115;46.038;14.612;2023-10-09T09:06:02;0.60;;;0.30;;
21901;SDS011;11115;46.038;14.612;2023-10-09T09:08:40;0.52;;;0.32;;
21901;SDS011;11115;46.038;14.612;2023-10-09T09:11:20;0.93;;;0.57;;
21901;SDS011;11115;46.038;14.612;2023-10-09T09:14:04;0.93;;;0.85;;
21901;SDS011;11115;46.038;14.612;2023-10-09T09:16:45;0.55;;;0.43;;
21901;SDS011;11115;46.038;14.612;2023-10-09T09:19:18;0.85;;;0.50;;
21901;SDS011;11115;46.038;14.612;2023-10-09T09:21:59;0.95;;;0.30;;
21901;SDS011;11115;46.038;14.612;2023-10-09T09:24:42;0.98;;;0.75;;
21901;SDS011;11115;46.038;14.612;2023-10-09T09:27:46;0.40;;;0.30;;
21901;SDS011;11115;46.038;14.612;2023-10-09T09:30:25;3.53;;;1.05;;
21901;SDS011;11115;46.038;14.612;2023-10-09T09:38:42;2.72;;;1.13;;
21901;SDS011;11115;46.038;14.612;2023-10-09T09:41:17;2.00;;;0.60;;
21901;SDS011;11115;46.038;14.612;2023-10-09T09:43:57;4.38;;;0.45;;
21901;SDS011;11115;46.038;14.612;2023-10-09T09:46:31;1.38;;;0.47;;
21901;SDS011;11115;46.038;14.612;2023-10-09T09:49:06;1.23;;;0.73;;
21901;SDS011;11115;46.038;14.612;2023-10-09T09:51:46;2.15;;;0.50;;
21901;SDS011;11115;46.038;14.612;2023-10-09T09:54:16;1.98;;;0.98;;
21901;SDS011;11115;46.038;14.612;2023-10-09T09:56:54;1.02;;;0.70;;
21901;SDS011;11115;46.038;14.612;2023-10-09T09:59:29;18.98;;;1.25;;
21901;SDS011;11115;46.038;14.612;2023-10-09T10:02:04;1.63;;;0.60;;
21901;SDS011;11115;46.038;14.612;2023-10-09T10:04:50;3.13;;;0.85;;
21901;SDS011;11115;46.038;14.612;2023-10-09T10:07:25;4.60;;;1.23;;
21901;SDS011;11115;46.038;14.612;2023-10-09T10:20:06;4.22;;;1.42;;
21901;SDS011;11115;46.038;14.612;2023-10-09T10:25:51;7.70;;;1.75;;
21901;SDS011;11115;46.038;14.612;2023-10-09T10:28:30;22.67;;;1.00;;
21901;SDS011;11115;46.038;14.612;2023-10-09T10:31:15;1.38;;;0.85;;
21901;SDS011;11115;46.038;14.612;2023-10-09T10:36:34;0.77;;;0.77;;
21901;SDS011;11115;46.038;14.612;2023-10-09T10:39:09;6.53;;;1.55;;
21901;SDS011;11115;46.038;14.612;2023-10-09T10:41:53;0.93;;;0.60;;
21901;SDS011;11115;46.038;14.612;2023-10-09T10:44:29;1.92;;;0.95;;
21901;SDS011;11115;46.038;14.612;2023-10-09T10:47:06;4.97;;;1.40;;
21901;SDS011;11115;46.038;14.612;2023-10-09T10:49:52;2.85;;;1.23;;
21901;SDS011;11115;46.038;14.612;2023-10-09T10:52:27;3.08;;;1.20;;
21901;SDS011;11115;46.038;14.612;2023-10-09T10:55:25;2.55;;;1.30;;
21901;SDS011;11115;46.038;14.612;2023-10-09T10:58:19;0.75;;;0.70;;
21901;SDS011;11115;46.038;14.612;2023-10-09T11:01:05;1.33;;;1.00;;
21901;SDS011;11115;46.038;14.612;2023-10-09T11:03:51;1.63;;;1.20;;
21901;SDS011;11115;46.038;14.612;2023-10-09T11:06:29;3.33;;;1.10;;
21901;SDS011;11115;46.038;14.612;2023-10-09T11:09:31;3.63;;;0.73;;
21901;SDS011;11115;46.038;14.612;2023-10-09T11:12:30;0.77;;;0.70;;
21901;SDS011;11115;46.038;14.612;2023-10-09T11:15:13;2.95;;;0.95;;
21901;SDS011;11115;46.038;14.612;2023-10-09T11:18:03;5.70;;;2.10;;
21901;SDS011;11115;46.038;14.612;2023-10-09T11:20:41;6.25;;;0.77;;
21901;SDS011;11115;46.038;14.612;2023-10-09T11:23:32;1.52;;;0.70;;
21901;SDS011;11115;46.038;14.612;2023-10-09T11:26:26;6.75;;;0.65;;
21901;SDS011;11115;46.038;14.612;2023-10-09T11:29:13;4.28;;;1.20;;
21901;SDS011;11115;46.038;14.612;2023-10-09T11:31:59;2.58;;;0.95;;
21901;SDS011;11115;46.038;14.612;2023-10-09T11:34:39;1.03;;;0.60;;
21901;SDS011;11115;46.038;14.612;2023-10-09T11:37:24;1.80;;;1.02;;
21901;SDS011;11115;46.038;14.612;2023-10-09T11:40:30;5.45;;;0.77;;
21901;SDS011;11115;46.038;14.612;2023-10-09T11:43:30;2.28;;;0.88;;
21901;SDS011;11115;46.038;14.612;2023-10-09T11:46:28;3.38;;;1.42;;
21901;SDS011;11115;46.038;14.612;2023-10-09T11:49:26;2.20;;;0.85;;
21901;SDS011;11115;46.038;14.612;2023-10-09T11:52:06;5.72;;;1.45;;
21901;SDS011;11115;46.038;14.612;2023-10-09T11:55:22;15.52;;;1.33;;
21901;SDS011;11115;46.038;14.612;2023-10-09T11:57:53;2.75;;;0.70;;
21901;SDS011;11115;46.038;14.612;2023-10-09T12:00:27;6.05;;;1.13;;
21901;SDS011;11115;46.038;14.612;2023-10-09T12:03:17;0.55;;;0.30;;
21901;SDS011;11115;46.038;14.612;2023-10-09T12:06:03;7.18;;;1.17;;
21901;SDS011;11115;46.038;14.612;2023-10-09T12:08:48;9.35;;;1.33;;
21901;SDS011;11115;46.038;14.612;2023-10-09T12:11:20;2.30;;;0.90;;
21901;SDS011;11115;46.038;14.612;2023-10-09T12:14:11;4.80;;;0.90;;
21901;SDS011;11115;46.038;14.612;2023-10-09T12:16:43;3.20;;;0.90;;
21901;SDS011;11115;46.038;14.612;2023-10-09T12:19:21;5.07;;;1.35;;
21901;SDS011;11115;46.038;14.612;2023-10-09T12:22:00;8.93;;;1.08;;
21901;SDS011;11115;46.038;14.612;2023-10-09T12:24:37;1.13;;;0.40;;
21901;SDS011;11115;46.038;14.612;2023-10-09T12:27:11;1.85;;;0.65;;
21901;SDS011;11115;46.038;14.612;2023-10-09T12:29:41;3.67;;;0.82;;
21901;SDS011;11115;46.038;14.612;2023-10-09T12:32:22;1.95;;;1.27;;
21901;SDS011;11115;46.038;14.612;2023-10-09T12:34:55;2.63;;;1.75;;
21901;SDS011;11115;46.038;14.612;2023-10-09T12:37:31;3.45;;;1.05;;
21901;SDS011;11115;46.038;14.612;2023-10-09T12:40:03;4.75;;;1.40;;
21901;SDS011;11115;46.038;14.612;2023-10-09T12:42:41;3.35;;;0.95;;
21901;SDS011;11115;46.038;14.612;2023-10-09T12:45:25;1.70;;;0.90;;
21901;SDS011;11115;46.038;14.612;2023-10-09T12:48:05;3.60;;;1.15;;
21901;SDS011;11115;46.038;14.612;2023-10-09T12:50:42;1.92;;;0.82;;
21901;SDS011;11115;46.038;14.612;2023-10-09T12:53:13;2.67;;;0.75;;
21901;SDS011;11115;46.038;14.612;2023-10-09T12:55:50;5.18;;;1.30;;
21901;SDS011;11115;46.038;14.612;2023-10-09T12:58:25;1.25;;;0.75;;
21901;SDS011;11115;46.038;14.612;2023-10-09T13:01:00;14.88;;;1.67;;
21901;SDS011;11115;46.038;14.612;2023-10-09T13:03:39;1.33;;;0.73;;
21901;SDS011;11115;46.038;14.612;2023-10-09T13:06:20;1.02;;;1.00;;
21901;SDS011;11115;46.038;14.612;2023-10-09T13:08:53;4.05;;;0.88;;
21901;SDS011;11115;46.038;14.612;2023-10-09T13:11:30;2.05;;;0.63;;
21901;SDS011;11115;46.038;14.612;2023-10-09T13:13:59;1.33;;;0.80;;
21901;SDS011;11115;46.038;14.612;2023-10-09T13:16:52;1.33;;;0.90;;
21901;SDS011;11115;46.038;14.612;2023-10-09T13:19:27;3.42;;;1.10;;
21901;SDS011;11115;46.038;14.612;2023-10-09T13:22:00;4.03;;;1.60;;
21901;SDS011;11115;46.038;14.612;2023-10-09T13:27:22;15.00;;;2.05;;
21901;SDS011;11115;46.038;14.612;2023-10-09T13:29:53;2.10;;;1.30;;
21901;SDS011;11115;46.038;14.612;2023-10-09T13:32:37;3.20;;;1.63;;
21901;SDS011;11115;46.038;14.612;2023-10-09T13:35:16;3.97;;;1.98;;
21901;SDS011;11115;46.038;14.612;2023-10-09T13:37:53;7.10;;;2.80;;
21901;SDS011;11115;46.038;14.612;2023-10-09T13:40:28;2.10;;;1.67;;
21901;SDS011;11115;46.038;14.612;2023-10-09T13:42:59;6.65;;;1.70;;
21901;SDS011;11115;46.038;14.612;2023-10-09T13:45:44;2.63;;;1.27;;
21901;SDS011;11115;46.038;14.612;2023-10-09T13:48:18;2.22;;;0.95;;
21901;SDS011;11115;46.038;14.612;2023-10-09T13:50:51;6.80;;;1.65;;
21901;SDS011;11115;46.038;14.612;2023-10-09T13:53:36;9.05;;;1.73;;
21901;SDS011;11115;46.038;14.612;2023-10-09T13:56:16;1.75;;;0.82;;
21901;SDS011;11115;46.038;14.612;2023-10-09T13:58:51;3.33;;;1.15;;
21901;SDS011;11115;46.038;14.612;2023-10-09T14:01:26;8.23;;;1.33;;
21901;SDS011;11115;46.038;14.612;2023-10-09T14:04:01;2.35;;;1.23;;
21901;SDS011;11115;46.038;14.612;2023-10-09T14:06:35;4.60;;;1.27;;
21901;SDS011;11115;46.038;14.612;2023-10-09T14:09:06;3.50;;;1.48;;
21901;SDS011;11115;46.038;14.612;2023-10-09T14:11:40;3.33;;;1.98;;
21901;SDS011;11115;46.038;14.612;2023-10-09T14:14:12;32.67;;;2.70;;
21901;SDS011;11115;46.038;14.612;2023-10-09T14:17:07;17.95;;;1.58;;
21901;SDS011;11115;46.038;14.612;2023-10-09T14:19:42;3.70;;;1.45;;
21901;SDS011;11115;46.038;14.612;2023-10-09T14:22:47;12.52;;;1.55;;
21901;SDS011;11115;46.038;14.612;2023-10-09T14:25:28;2.55;;;1.42;;
21901;SDS011;11115;46.038;14.612;2023-10-09T14:28:08;3.42;;;1.13;;
21901;SDS011;11115;46.038;14.612;2023-10-09T14:30:47;7.53;;;1.93;;
21901;SDS011;11115;46.038;14.612;2023-10-09T14:36:19;6.03;;;1.83;;
21901;SDS011;11115;46.038;14.612;2023-10-09T14:38:52;5.22;;;1.55;;
21901;SDS011;11115;46.038;14.612;2023-10-09T14:41:32;7.50;;;1.17;;
21901;SDS011;11115;46.038;14.612;2023-10-09T14:44:05;12.93;;;2.42;;
21901;SDS011;11115;46.038;14.612;2023-10-09T14:46:56;26.23;;;1.90;;
21901;SDS011;11115;46.038;14.612;2023-10-09T14:49:40;6.78;;;1.65;;
21901;SDS011;11115;46.038;14.612;2023-10-09T14:52:15;7.05;;;1.58;;
21901;SDS011;11115;46.038;14.612;2023-10-09T14:54:45;4.05;;;1.98;;
21901;SDS011;11115;46.038;14.612;2023-10-09T14:57:17;4.15;;;2.17;;
21901;SDS011;11115;46.038;14.612;2023-10-09T14:59:46;2.83;;;2.05;;
21901;SDS011;11115;46.038;14.612;2023-10-09T15:02:16;7.22;;;1.67;;
21901;SDS011;11115;46.038;14.612;2023-10-09T15:04:55;4.13;;;2.63;;
21901;SDS011;11115;46.038;14.612;2023-10-09T15:07:32;12.43;;;2.55;;
21901;SDS011;11115;46.038;14.612;2023-10-09T15:10:08;11.63;;;2.58;;
21901;SDS011;11115;46.038;14.612;2023-10-09T15:12:43;9.60;;;4.28;;
21901;SDS011;11115;46.038;14.612;2023-10-09T15:15:29;25.58;;;10.80;;
21901;SDS011;11115;46.038;14.612;2023-10-09T15:18:03;26.88;;;7.60;;
21901;SDS011;11115;46.038;14.612;2023-10-09T15:20:35;11.23;;;5.57;;
21901;SDS011;11115;46.038;14.612;2023-10-09T15:23:12;6.35;;;3.20;;
21901;SDS011;11115;46.038;14.612;2023-10-09T15:25:46;15.00;;;6.72;;
21901;SDS011;11115;46.038;14.612;2023-10-09T15:28:25;10.23;;;3.95;;
21901;SDS011;11115;46.038;14.612;2023-10-09T15:31:07;18.35;;;3.30;;
21901;SDS011;11115;46.038;14.612;2023-10-09T15:33:45;10.35;;;3.28;;
21901;SDS011;11115;46.038;14.612;2023-10-09T15:36:19;6.95;;;2.47;;
21901;SDS011;11115;46.038;14.612;2023-10-09T15:39:00;4.97;;;1.85;;
21901;SDS011;11115;46.038;14.612;2023-10-09T15:41:30;12.15;;;2.13;;
21901;SDS011;11115;46.038;14.612;2023-10-09T15:44:02;3.35;;;1.55;;
21901;SDS011;11115;46.038;14.612;2023-10-09T15:46:38;4.95;;;2.40;;
21901;SDS011;11115;46.038;14.612;2023-10-09T15:49:16;10.95;;;3.20;;
21901;SDS011;11115;46.038;14.612;2023-10-09T15:51:49;11.13;;;3.15;;
21901;SDS011;11115;46.038;14.612;2023-10-09T15:54:27;7.10;;;2.00;;
21901;SDS011;11115;46.038;14.612;2023-10-09T15:56:59;9.80;;;3.97;;
21901;SDS011;11115;46.038;14.612;2023-10-09T15:59:39;5.18;;;2.45;;
21901;SDS011;11115;46.038;14.612;2023-10-09T16:02:11;6.75;;;2.20;;
21901;SDS011;11115;46.038;14.612;2023-10-09T16:07:15;21.58;;;11.13;;
21901;SDS011;11115;46.038;14.612;2023-10-09T16:10:00;28.23;;;8.27;;
21901;SDS011;11115;46.038;14.612;2023-10-09T16:12:35;13.90;;;3.05;;
21901;SDS011;11115;46.038;14.612;2023-10-09T16:15:09;19.65;;;3.22;;
21901;SDS011;11115;46.038;14.612;2023-10-09T16:17:46;3.80;;;2.35;;
21901;SDS011;11115;46.038;14.612;2023-10-09T16:20:17;4.53;;;1.77;;
21901;SDS011;11115;46.038;14.612;2023-10-09T16:22:53;5.50;;;2.67;;
21901;SDS011;11115;46.038;14.612;2023-10-09T16:25:27;4.68;;;2.83;;
21901;SDS011;11115;46.038;14.612;2023-10-09T16:27:58;14.43;;;3.42;;
21901;SDS011;11115;46.038;14.612;2023-10-09T16:30:37;9.93;;;2.22;;
21901;SDS011;11115;46.038;14.612;2023-10-09T16:33:09;9.18;;;3.63;;
21901;SDS011;11115;46.038;14.612;2023-10-09T16:35:48;7.20;;;3.05;;